Sosnowiec, Poland
Current Conditions -  °F | °C
As of 4:00 PM on Thursday 23 Oct 2014 (Local Time) from EPKT Reporting Station
Drizzle Drizzle  
Wind Chill: 29°   Ceiling: 200
Heat Index: 37°   Visibility: 1.1mi
Dew Point: 37°   Wind: 13mph
Humidity: 100%   Direction: 20°NNE
Pressure: 30.03"   Gusts: NA
Location:  50.28°N, 19.12°E
Report Text: EPKT 231400Z 02011KT 1800 DZ BR FEW001 BKN002 03/03 Q1017
Loading
Personal Weather Stations






























Interactive Weather Map
Tropical Storm Tracking
New forecast layout! Learn more

10-Day Weather Forecast

Advertisements
Track Severe Weather on mobile